Nakhchivan Airport
UBBN : now visible

Airfield :











YOU CAN JOIN US ON...

 
LOGIN :

Register | Disclaimer

   EN    FR    IT 

 









Legend :    VFR   Marginal VFR   IFR   Intensive IFR   Very Intensive IFR
Visi :
Ceiling :
>= 8 km
>= 3000ft
5 to 8 km
1000 to 3000 ft
1500m to 5 km
500 to 1000 ft
800 to 1500m
200 to 500 ft
< 800m
< 200 ft
Symbols :   Thunderstorms  Fog  Heavy snow  Heavy precipitations  Wind > 20 kt






- Airport Elevation : 2863 ft
- IATA code : NAJ


UBBN - Nakhchivan

CURRENT METAR :
  • 011200Z 15004KT 9999 NSC 33/M01 Q1009 R14R/CLRD// NOSIG RMK MT OP QFE682

EXPIRED METARs :
  • 011100Z 27004KT 9999 NSC 32/M02 Q1009 R14R/CLRD// NOSIG RMK MT OP QFE683

TAF TAF UBBN
Valid from the 01 at 12:00 until the 02 at 12:00 UTC


011101Z 0112/0212 VRB04KT 9999 FEW050 TX34/0112Z TN15/0202Z
TEMPO 0112/0118 13012KT
TEMPO 0118/0204 04008KT
UBBA FIR / Asia



MET'MAP, your aeronautical weather chart ! - Copyright ORBIFLY December 2007 - Disclaimer

ORBIFLY MET'MAP TEAM :

Programming & Development : Alexandra Zaïnal
Concept & original design : Baudouin d'Aumeries
Assistance for programming : Marc-Olivier Méhu
Technical & hardware support : Manuel Goepfert

Contact : metmap@orbifly.com




SOURCES & CREDITS :

   NOAA       Earth
Advisory